sensor_id;sensor_type;location;lat;lon;timestamp;temperature;humidity
22167;DHT22;11249;52.468;13.776;2023-10-19T00:00:34;6.40;99.90
22167;DHT22;11249;52.468;13.776;2023-10-19T00:03:02;6.40;99.90
22167;DHT22;11249;52.468;13.776;2023-10-19T00:05:29;6.30;99.90
22167;DHT22;11249;52.468;13.776;2023-10-19T00:08:02;6.30;99.90
22167;DHT22;11249;52.468;13.776;2023-10-19T00:10:32;6.30;99.90
22167;DHT22;11249;52.468;13.776;2023-10-19T00:13:03;6.30;99.90
22167;DHT22;11249;52.468;13.776;2023-10-19T00:15:35;6.30;99.90
22167;DHT22;11249;52.468;13.776;2023-10-19T00:18:06;6.20;99.90
22167;DHT22;11249;52.468;13.776;2023-10-19T00:20:42;6.30;99.90
22167;DHT22;11249;52.468;13.776;2023-10-19T00:23:12;6.20;99.90
22167;DHT22;11249;52.468;13.776;2023-10-19T00:25:45;6.20;99.90
22167;DHT22;11249;52.468;13.776;2023-10-19T00:28:17;6.30;99.90
22167;DHT22;11249;52.468;13.776;2023-10-19T00:30:44;6.30;99.90
22167;DHT22;11249;52.468;13.776;2023-10-19T00:33:12;6.30;99.90
22167;DHT22;11249;52.468;13.776;2023-10-19T00:35:46;6.40;99.90
22167;DHT22;11249;52.468;13.776;2023-10-19T00:38:34;6.30;99.90
22167;DHT22;11249;52.468;13.776;2023-10-19T00:41:04;6.30;99.90
22167;DHT22;11249;52.468;13.776;2023-10-19T00:43:38;6.30;99.90
22167;DHT22;11249;52.468;13.776;2023-10-19T00:46:13;6.30;99.90
22167;DHT22;11249;52.468;13.776;2023-10-19T00:48:51;6.30;99.90
22167;DHT22;11249;52.468;13.776;2023-10-19T00:51:21;6.30;99.90
22167;DHT22;11249;52.468;13.776;2023-10-19T00:53:54;6.30;99.90
22167;DHT22;11249;52.468;13.776;2023-10-19T00:56:21;6.30;99.90
22167;DHT22;11249;52.468;13.776;2023-10-19T00:58:49;6.30;99.90
22167;DHT22;11249;52.468;13.776;2023-10-19T01:01:27;6.30;99.90
22167;DHT22;11249;52.468;13.776;2023-10-19T01:03:55;6.30;99.90
22167;DHT22;11249;52.468;13.776;2023-10-19T01:06:25;6.20;99.90
22167;DHT22;11249;52.468;13.776;2023-10-19T01:08:52;6.20;99.90
22167;DHT22;11249;52.468;13.776;2023-10-19T01:11:19;6.20;99.90
22167;DHT22;11249;52.468;13.776;2023-10-19T01:13:47;6.20;99.90
22167;DHT22;11249;52.468;13.776;2023-10-19T01:16:15;6.30;99.90
22167;DHT22;11249;52.468;13.776;2023-10-19T01:18:50;6.30;99.90
22167;DHT22;11249;52.468;13.776;2023-10-19T01:21:23;6.20;99.90
22167;DHT22;11249;52.468;13.776;2023-10-19T01:24:05;6.20;99.90
22167;DHT22;11249;52.468;13.776;2023-10-19T01:26:32;6.20;99.90
22167;DHT22;11249;52.468;13.776;2023-10-19T01:29:03;6.20;99.90
22167;DHT22;11249;52.468;13.776;2023-10-19T01:31:44;6.20;99.90
22167;DHT22;11249;52.468;13.776;2023-10-19T01:34:23;6.10;99.90
22167;DHT22;11249;52.468;13.776;2023-10-19T01:36:49;6.10;99.90
22167;DHT22;11249;52.468;13.776;2023-10-19T01:39:21;6.10;99.90
22167;DHT22;11249;52.468;13.776;2023-10-19T01:41:48;6.10;99.90
22167;DHT22;11249;52.468;13.776;2023-10-19T01:44:17;6.10;99.90
22167;DHT22;11249;52.468;13.776;2023-10-19T01:46:47;6.10;99.90
22167;DHT22;11249;52.468;13.776;2023-10-19T01:49:15;6.10;99.90
22167;DHT22;11249;52.468;13.776;2023-10-19T01:51:52;6.10;99.90
22167;DHT22;11249;52.468;13.776;2023-10-19T01:54:21;6.10;99.90
22167;DHT22;11249;52.468;13.776;2023-10-19T01:56:53;6.10;99.90
22167;DHT22;11249;52.468;13.776;2023-10-19T01:59:23;6.10;99.90
22167;DHT22;11249;52.468;13.776;2023-10-19T02:01:54;6.10;99.90
22167;DHT22;11249;52.468;13.776;2023-10-19T02:04:21;6.10;99.90
22167;DHT22;11249;52.468;13.776;2023-10-19T02:06:48;6.10;99.90
22167;DHT22;11249;52.468;13.776;2023-10-19T02:09:17;6.10;99.90
22167;DHT22;11249;52.468;13.776;2023-10-19T02:11:46;6.10;99.90
22167;DHT22;11249;52.468;13.776;2023-10-19T02:14:14;6.10;99.90
22167;DHT22;11249;52.468;13.776;2023-10-19T02:16:42;6.00;99.90
22167;DHT22;11249;52.468;13.776;2023-10-19T02:19:10;6.10;99.90
22167;DHT22;11249;52.468;13.776;2023-10-19T02:21:37;6.10;99.90
22167;DHT22;11249;52.468;13.776;2023-10-19T02:24:07;6.10;99.90
22167;DHT22;11249;52.468;13.776;2023-10-19T02:26:34;6.10;99.90
22167;DHT22;11249;52.468;13.776;2023-10-19T02:29:02;6.10;99.90
22167;DHT22;11249;52.468;13.776;2023-10-19T02:31:34;6.10;99.90
22167;DHT22;11249;52.468;13.776;2023-10-19T02:34:01;6.10;99.90
22167;DHT22;11249;52.468;13.776;2023-10-19T02:36:27;6.10;99.90
22167;DHT22;11249;52.468;13.776;2023-10-19T02:39:01;6.10;99.90
22167;DHT22;11249;52.468;13.776;2023-10-19T02:41:35;6.10;99.90
22167;DHT22;11249;52.468;13.776;2023-10-19T02:44:07;6.10;99.90
22167;DHT22;11249;52.468;13.776;2023-10-19T02:46:36;6.20;99.90
22167;DHT22;11249;52.468;13.776;2023-10-19T02:49:05;6.20;99.90
22167;DHT22;11249;52.468;13.776;2023-10-19T02:51:40;6.20;99.90
22167;DHT22;11249;52.468;13.776;2023-10-19T02:54:07;6.20;99.90
22167;DHT22;11249;52.468;13.776;2023-10-19T02:56:35;6.20;99.90
22167;DHT22;11249;52.468;13.776;2023-10-19T02:59:02;6.30;99.90
22167;DHT22;11249;52.468;13.776;2023-10-19T03:01:30;6.30;99.90
22167;DHT22;11249;52.468;13.776;2023-10-19T03:04:02;6.30;99.90
22167;DHT22;11249;52.468;13.776;2023-10-19T03:06:29;6.20;99.90
22167;DHT22;11249;52.468;13.776;2023-10-19T03:09:00;6.30;99.90
22167;DHT22;11249;52.468;13.776;2023-10-19T03:11:46;6.30;99.90
22167;DHT22;11249;52.468;13.776;2023-10-19T03:14:13;6.30;99.90
22167;DHT22;11249;52.468;13.776;2023-10-19T03:16:40;6.40;99.90
22167;DHT22;11249;52.468;13.776;2023-10-19T03:19:08;6.40;99.90
22167;DHT22;11249;52.468;13.776;2023-10-19T03:21:35;6.40;99.90
22167;DHT22;11249;52.468;13.776;2023-10-19T03:24:10;6.40;99.90
22167;DHT22;11249;52.468;13.776;2023-10-19T03:26:42;6.40;99.90
22167;DHT22;11249;52.468;13.776;2023-10-19T03:29:18;6.40;99.90
22167;DHT22;11249;52.468;13.776;2023-10-19T03:32:05;6.40;99.90
22167;DHT22;11249;52.468;13.776;2023-10-19T03:34:35;6.40;99.90
22167;DHT22;11249;52.468;13.776;2023-10-19T03:37:05;6.40;99.90
22167;DHT22;11249;52.468;13.776;2023-10-19T03:39:33;6.40;99.90
22167;DHT22;11249;52.468;13.776;2023-10-19T03:42:00;6.50;99.90
22167;DHT22;11249;52.468;13.776;2023-10-19T03:44:27;6.50;99.90
22167;DHT22;11249;52.468;13.776;2023-10-19T03:47:05;6.50;99.90
22167;DHT22;11249;52.468;13.776;2023-10-19T03:49:38;6.50;99.90
22167;DHT22;11249;52.468;13.776;2023-10-19T03:52:06;6.40;99.90
22167;DHT22;11249;52.468;13.776;2023-10-19T03:54:36;6.40;99.90
22167;DHT22;11249;52.468;13.776;2023-10-19T03:57:09;6.40;99.90
22167;DHT22;11249;52.468;13.776;2023-10-19T03:59:39;6.40;99.90
22167;DHT22;11249;52.468;13.776;2023-10-19T04:02:08;6.40;99.90
22167;DHT22;11249;52.468;13.776;2023-10-19T04:04:48;6.40;99.90
22167;DHT22;11249;52.468;13.776;2023-10-19T04:07:15;6.30;99.90
22167;DHT22;11249;52.468;13.776;2023-10-19T04:09:49;6.30;99.90
22167;DHT22;11249;52.468;13.776;2023-10-19T04:12:34;6.30;99.90
22167;DHT22;11249;52.468;13.776;2023-10-19T04:15:05;6.30;99.90
22167;DHT22;11249;52.468;13.776;2023-10-19T04:17:44;6.20;99.90
22167;DHT22;11249;52.468;13.776;2023-10-19T04:20:17;6.20;99.90
22167;DHT22;11249;52.468;13.776;2023-10-19T04:22:44;6.20;99.90
22167;DHT22;11249;52.468;13.776;2023-10-19T04:25:12;6.20;99.90
22167;DHT22;11249;52.468;13.776;2023-10-19T04:27:39;6.30;99.90
22167;DHT22;11249;52.468;13.776;2023-10-19T04:30:09;6.20;99.90
22167;DHT22;11249;52.468;13.776;2023-10-19T04:32:42;6.20;99.90
22167;DHT22;11249;52.468;13.776;2023-10-19T04:35:09;6.20;99.90
22167;DHT22;11249;52.468;13.776;2023-10-19T04:37:36;6.20;99.90
22167;DHT22;11249;52.468;13.776;2023-10-19T04:40:03;6.20;99.90
22167;DHT22;11249;52.468;13.776;2023-10-19T04:42:30;6.20;99.90
22167;DHT22;11249;52.468;13.776;2023-10-19T04:44:59;6.20;99.90
22167;DHT22;11249;52.468;13.776;2023-10-19T04:47:25;6.20;99.90
22167;DHT22;11249;52.468;13.776;2023-10-19T04:49:52;6.20;99.90
22167;DHT22;11249;52.468;13.776;2023-10-19T04:52:19;6.30;99.90
22167;DHT22;11249;52.468;13.776;2023-10-19T04:54:46;6.30;99.90
22167;DHT22;11249;52.468;13.776;2023-10-19T04:57:12;6.20;99.90
22167;DHT22;11249;52.468;13.776;2023-10-19T04:59:39;6.20;99.90
22167;DHT22;11249;52.468;13.776;2023-10-19T05:02:06;6.20;99.90
22167;DHT22;11249;52.468;13.776;2023-10-19T05:04:32;6.20;99.90
22167;DHT22;11249;52.468;13.776;2023-10-19T05:07:00;6.20;99.90
22167;DHT22;11249;52.468;13.776;2023-10-19T05:09:31;6.20;99.90
22167;DHT22;11249;52.468;13.776;2023-10-19T05:11:58;6.20;99.90
22167;DHT22;11249;52.468;13.776;2023-10-19T05:14:24;6.20;99.90
22167;DHT22;11249;52.468;13.776;2023-10-19T05:16:51;6.20;99.90
22167;DHT22;11249;52.468;13.776;2023-10-19T05:19:18;6.20;99.90
22167;DHT22;11249;52.468;13.776;2023-10-19T05:21:44;6.20;99.90
22167;DHT22;11249;52.468;13.776;2023-10-19T05:24:11;6.20;99.90
22167;DHT22;11249;52.468;13.776;2023-10-19T05:26:38;6.20;99.90
22167;DHT22;11249;52.468;13.776;2023-10-19T05:29:04;6.20;99.90
22167;DHT22;11249;52.468;13.776;2023-10-19T05:31:31;6.20;99.90
22167;DHT22;11249;52.468;13.776;2023-10-19T05:33:57;6.20;99.90
22167;DHT22;11249;52.468;13.776;2023-10-19T05:36:24;6.20;99.90
22167;DHT22;11249;52.468;13.776;2023-10-19T05:38:51;6.20;99.90
22167;DHT22;11249;52.468;13.776;2023-10-19T05:41:18;6.20;99.90
22167;DHT22;11249;52.468;13.776;2023-10-19T05:43:47;6.20;99.90
22167;DHT22;11249;52.468;13.776;2023-10-19T05:46:14;6.20;99.90
22167;DHT22;11249;52.468;13.776;2023-10-19T05:48:45;6.20;99.90
22167;DHT22;11249;52.468;13.776;2023-10-19T05:51:12;6.20;99.90
22167;DHT22;11249;52.468;13.776;2023-10-19T05:53:41;6.20;99.90
22167;DHT22;11249;52.468;13.776;2023-10-19T05:56:07;6.20;99.90
22167;DHT22;11249;52.468;13.776;2023-10-19T05:58:34;6.20;99.90
22167;DHT22;11249;52.468;13.776;2023-10-19T06:01:05;6.20;99.90
22167;DHT22;11249;52.468;13.776;2023-10-19T06:03:31;6.20;99.90
22167;DHT22;11249;52.468;13.776;2023-10-19T06:05:58;6.20;99.90
22167;DHT22;11249;52.468;13.776;2023-10-19T06:08:25;6.20;99.90
22167;DHT22;11249;52.468;13.776;2023-10-19T06:10:52;6.20;99.90
22167;DHT22;11249;52.468;13.776;2023-10-19T06:13:19;6.20;99.90
22167;DHT22;11249;52.468;13.776;2023-10-19T06:15:45;6.20;99.90
22167;DHT22;11249;52.468;13.776;2023-10-19T06:18:14;6.30;99.90
22167;DHT22;11249;52.468;13.776;2023-10-19T06:20:44;6.30;99.90
22167;DHT22;11249;52.468;13.776;2023-10-19T06:23:11;6.30;99.90
22167;DHT22;11249;52.468;13.776;2023-10-19T06:25:38;6.30;99.90
22167;DHT22;11249;52.468;13.776;2023-10-19T06:28:05;6.40;99.90
22167;DHT22;11249;52.468;13.776;2023-10-19T06:30:32;6.40;99.90
22167;DHT22;11249;52.468;13.776;2023-10-19T06:32:59;6.40;99.90
22167;DHT22;11249;52.468;13.776;2023-10-19T06:35:30;6.40;99.90
22167;DHT22;11249;52.468;13.776;2023-10-19T06:38:00;6.50;99.90
22167;DHT22;11249;52.468;13.776;2023-10-19T06:40:27;6.50;99.90
22167;DHT22;11249;52.468;13.776;2023-10-19T06:42:54;6.50;99.90
22167;DHT22;11249;52.468;13.776;2023-10-19T06:45:24;6.60;99.90
22167;DHT22;11249;52.468;13.776;2023-10-19T06:47:56;6.60;99.90
22167;DHT22;11249;52.468;13.776;2023-10-19T06:50:23;6.60;99.90
22167;DHT22;11249;52.468;13.776;2023-10-19T06:52:50;6.60;99.90
22167;DHT22;11249;52.468;13.776;2023-10-19T06:55:18;6.60;99.90
22167;DHT22;11249;52.468;13.776;2023-10-19T06:57:49;6.60;99.90
22167;DHT22;11249;52.468;13.776;2023-10-19T07:00:16;6.60;99.90
22167;DHT22;11249;52.468;13.776;2023-10-19T07:02:46;6.60;99.90
22167;DHT22;11249;52.468;13.776;2023-10-19T07:05:13;6.60;99.90
22167;DHT22;11249;52.468;13.776;2023-10-19T07:07:44;6.60;99.90
22167;DHT22;11249;52.468;13.776;2023-10-19T07:10:12;6.60;99.90
22167;DHT22;11249;52.468;13.776;2023-10-19T07:12:43;6.60;99.90
22167;DHT22;11249;52.468;13.776;2023-10-19T07:15:10;6.70;99.90
22167;DHT22;11249;52.468;13.776;2023-10-19T07:17:40;6.70;99.90
22167;DHT22;11249;52.468;13.776;2023-10-19T07:20:08;6.80;99.90
22167;DHT22;11249;52.468;13.776;2023-10-19T07:22:35;6.80;99.90
22167;DHT22;11249;52.468;13.776;2023-10-19T07:25:05;6.80;99.90
22167;DHT22;11249;52.468;13.776;2023-10-19T07:27:32;6.90;99.90
22167;DHT22;11249;52.468;13.776;2023-10-19T07:30:04;6.90;99.90
22167;DHT22;11249;52.468;13.776;2023-10-19T07:32:35;7.00;99.90
22167;DHT22;11249;52.468;13.776;2023-10-19T07:35:03;7.00;99.90
22167;DHT22;11249;52.468;13.776;2023-10-19T07:37:30;7.00;99.90
22167;DHT22;11249;52.468;13.776;2023-10-19T07:39:58;7.00;99.90
22167;DHT22;11249;52.468;13.776;2023-10-19T07:42:24;7.00;99.90
22167;DHT22;11249;52.468;13.776;2023-10-19T07:44:52;7.00;99.90
22167;DHT22;11249;52.468;13.776;2023-10-19T07:47:18;7.10;99.90
22167;DHT22;11249;52.468;13.776;2023-10-19T07:49:45;7.10;99.90
22167;DHT22;11249;52.468;13.776;2023-10-19T07:52:14;7.10;99.90
22167;DHT22;11249;52.468;13.776;2023-10-19T07:54:41;7.20;99.90
22167;DHT22;11249;52.468;13.776;2023-10-19T07:57:07;7.20;99.90
22167;DHT22;11249;52.468;13.776;2023-10-19T07:59:34;7.20;99.90
22167;DHT22;11249;52.468;13.776;2023-10-19T08:02:01;7.30;99.90
22167;DHT22;11249;52.468;13.776;2023-10-19T08:04:31;7.30;99.90
22167;DHT22;11249;52.468;13.776;2023-10-19T08:06:58;7.40;99.90
22167;DHT22;11249;52.468;13.776;2023-10-19T08:09:25;7.40;99.90
22167;DHT22;11249;52.468;13.776;2023-10-19T08:11:58;7.50;99.90
22167;DHT22;11249;52.468;13.776;2023-10-19T08:14:28;7.60;99.90
22167;DHT22;11249;52.468;13.776;2023-10-19T08:16:54;7.60;99.90
22167;DHT22;11249;52.468;13.776;2023-10-19T08:19:23;7.60;99.90
22167;DHT22;11249;52.468;13.776;2023-10-19T08:21:50;7.60;99.90
22167;DHT22;11249;52.468;13.776;2023-10-19T08:24:16;7.70;99.90
22167;DHT22;11249;52.468;13.776;2023-10-19T08:26:47;7.70;99.90
22167;DHT22;11249;52.468;13.776;2023-10-19T08:29:14;7.70;99.90
22167;DHT22;11249;52.468;13.776;2023-10-19T08:31:41;7.70;99.90
22167;DHT22;11249;52.468;13.776;2023-10-19T08:34:08;7.80;99.90
22167;DHT22;11249;52.468;13.776;2023-10-19T08:36:36;7.70;99.90
22167;DHT22;11249;52.468;13.776;2023-10-19T08:39:04;7.80;99.90
22167;DHT22;11249;52.468;13.776;2023-10-19T08:41:35;7.80;99.90
22167;DHT22;11249;52.468;13.776;2023-10-19T08:44:04;7.80;99.90
22167;DHT22;11249;52.468;13.776;2023-10-19T08:46:39;7.80;99.90
22167;DHT22;11249;52.468;13.776;2023-10-19T08:49:06;7.90;99.90
22167;DHT22;11249;52.468;13.776;2023-10-19T08:51:37;7.90;99.90
22167;DHT22;11249;52.468;13.776;2023-10-19T08:54:04;8.00;99.90
22167;DHT22;11249;52.468;13.776;2023-10-19T08:56:32;8.10;99.90
22167;DHT22;11249;52.468;13.776;2023-10-19T08:59:00;8.10;99.90
22167;DHT22;11249;52.468;13.776;2023-10-19T09:01:27;8.20;99.90
22167;DHT22;11249;52.468;13.776;2023-10-19T09:03:58;8.20;99.90
22167;DHT22;11249;52.468;13.776;2023-10-19T09:06:25;8.30;99.90
22167;DHT22;11249;52.468;13.776;2023-10-19T09:08:52;8.40;99.90
22167;DHT22;11249;52.468;13.776;2023-10-19T09:11:19;8.50;99.90
22167;DHT22;11249;52.468;13.776;2023-10-19T09:13:47;8.50;99.90
22167;DHT22;11249;52.468;13.776;2023-10-19T09:16:18;8.60;99.90
22167;DHT22;11249;52.468;13.776;2023-10-19T09:18:47;8.70;99.90
22167;DHT22;11249;52.468;13.776;2023-10-19T09:21:17;8.60;99.90
22167;DHT22;11249;52.468;13.776;2023-10-19T09:23:55;8.70;99.90
22167;DHT22;11249;52.468;13.776;2023-10-19T09:26:22;8.70;99.90
22167;DHT22;11249;52.468;13.776;2023-10-19T09:28:49;8.70;99.90
22167;DHT22;11249;52.468;13.776;2023-10-19T09:31:17;8.70;99.90
22167;DHT22;11249;52.468;13.776;2023-10-19T09:37:08;8.70;99.90
22167;DHT22;11249;52.468;13.776;2023-10-19T09:39:35;8.60;99.90
22167;DHT22;11249;52.468;13.776;2023-10-19T09:42:09;8.60;99.90
22167;DHT22;11249;52.468;13.776;2023-10-19T09:44:47;8.60;99.90
22167;DHT22;11249;52.468;13.776;2023-10-19T09:47:15;8.70;99.90
22167;DHT22;11249;52.468;13.776;2023-10-19T09:49:44;8.70;99.90
22167;DHT22;11249;52.468;13.776;2023-10-19T09:52:10;8.70;99.90
22167;DHT22;11249;52.468;13.776;2023-10-19T09:57:10;8.90;99.90
22167;DHT22;11249;52.468;13.776;2023-10-19T09:59:44;8.90;99.90
22167;DHT22;11249;52.468;13.776;2023-10-19T10:02:12;8.90;99.90
22167;DHT22;11249;52.468;13.776;2023-10-19T10:04:44;8.90;99.90
22167;DHT22;11249;52.468;13.776;2023-10-19T10:07:15;8.90;99.90
22167;DHT22;11249;52.468;13.776;2023-10-19T10:10:05;8.80;99.90
22167;DHT22;11249;52.468;13.776;2023-10-19T10:12:31;8.80;99.90
22167;DHT22;11249;52.468;13.776;2023-10-19T10:15:04;8.80;99.90
22167;DHT22;11249;52.468;13.776;2023-10-19T10:17:38;8.80;99.90
22167;DHT22;11249;52.468;13.776;2023-10-19T10:22:40;8.80;99.90
22167;DHT22;11249;52.468;13.776;2023-10-19T10:25:08;8.80;99.90
22167;DHT22;11249;52.468;13.776;2023-10-19T10:27:51;8.70;99.90
22167;DHT22;11249;52.468;13.776;2023-10-19T10:30:18;8.70;99.90
22167;DHT22;11249;52.468;13.776;2023-10-19T10:32:49;8.70;99.90
22167;DHT22;11249;52.468;13.776;2023-10-19T10:35:53;8.70;99.90
22167;DHT22;11249;52.468;13.776;2023-10-19T10:38:12;8.80;99.90
22167;DHT22;11249;52.468;13.776;2023-10-19T10:40:45;8.80;99.90
22167;DHT22;11249;52.468;13.776;2023-10-19T10:43:12;8.80;99.90
22167;DHT22;11249;52.468;13.776;2023-10-19T10:45:39;8.80;99.90
22167;DHT22;11249;52.468;13.776;2023-10-19T10:48:16;8.80;99.90
22167;DHT22;11249;52.468;13.776;2023-10-19T10:50:43;8.80;99.90
22167;DHT22;11249;52.468;13.776;2023-10-19T10:53:11;8.80;99.90
22167;DHT22;11249;52.468;13.776;2023-10-19T10:55:38;8.80;99.90
22167;DHT22;11249;52.468;13.776;2023-10-19T10:58:08;8.80;99.90
22167;DHT22;11249;52.468;13.776;2023-10-19T11:00:41;8.80;99.90
22167;DHT22;11249;52.468;13.776;2023-10-19T11:03:08;8.80;99.90
22167;DHT22;11249;52.468;13.776;2023-10-19T11:05:36;8.80;99.90
22167;DHT22;11249;52.468;13.776;2023-10-19T11:10:33;8.80;99.90
22167;DHT22;11249;52.468;13.776;2023-10-19T11:13:01;8.80;99.90
22167;DHT22;11249;52.468;13.776;2023-10-19T11:15:27;8.80;99.90
22167;DHT22;11249;52.468;13.776;2023-10-19T11:17:54;8.80;99.90
22167;DHT22;11249;52.468;13.776;2023-10-19T11:20:25;8.70;99.90
22167;DHT22;11249;52.468;13.776;2023-10-19T11:22:54;8.70;99.90
22167;DHT22;11249;52.468;13.776;2023-10-19T11:25:29;8.80;99.90
22167;DHT22;11249;52.468;13.776;2023-10-19T11:27:57;8.70;99.90
22167;DHT22;11249;52.468;13.776;2023-10-19T11:30:28;8.80;99.90
22167;DHT22;11249;52.468;13.776;2023-10-19T11:32:55;8.80;99.90
22167;DHT22;11249;52.468;13.776;2023-10-19T11:35:26;8.80;99.90
22167;DHT22;11249;52.468;13.776;2023-10-19T11:37:58;8.80;99.90
22167;DHT22;11249;52.468;13.776;2023-10-19T11:40:26;8.80;99.90
22167;DHT22;11249;52.468;13.776;2023-10-19T11:42:53;8.90;99.90
22167;DHT22;11249;52.468;13.776;2023-10-19T11:45:23;8.90;99.90
22167;DHT22;11249;52.468;13.776;2023-10-19T11:47:52;9.00;99.90
22167;DHT22;11249;52.468;13.776;2023-10-19T11:50:20;9.00;99.90
22167;DHT22;11249;52.468;13.776;2023-10-19T11:52:46;9.10;99.90
22167;DHT22;11249;52.468;13.776;2023-10-19T11:55:13;9.20;99.90
22167;DHT22;11249;52.468;13.776;2023-10-19T11:57:41;9.20;99.90
22167;DHT22;11249;52.468;13.776;2023-10-19T12:00:10;9.20;99.90
22167;DHT22;11249;52.468;13.776;2023-10-19T12:02:40;9.20;99.90
22167;DHT22;11249;52.468;13.776;2023-10-19T12:05:10;9.20;99.90
22167;DHT22;11249;52.468;13.776;2023-10-19T12:07:37;9.20;99.90
22167;DHT22;11249;52.468;13.776;2023-10-19T12:10:05;9.20;99.90
22167;DHT22;11249;52.468;13.776;2023-10-19T12:12:34;9.10;99.90
22167;DHT22;11249;52.468;13.776;2023-10-19T12:15:21;9.10;99.90
22167;DHT22;11249;52.468;13.776;2023-10-19T12:17:49;9.10;99.90
22167;DHT22;11249;52.468;13.776;2023-10-19T12:20:17;9.00;99.90
22167;DHT22;11249;52.468;13.776;2023-10-19T12:22:48;8.90;99.90
22167;DHT22;11249;52.468;13.776;2023-10-19T12:25:18;8.90;99.90
22167;DHT22;11249;52.468;13.776;2023-10-19T12:27:45;8.90;99.90
22167;DHT22;11249;52.468;13.776;2023-10-19T12:30:12;8.90;99.90
22167;DHT22;11249;52.468;13.776;2023-10-19T12:32:48;8.90;99.90
22167;DHT22;11249;52.468;13.776;2023-10-19T12:35:18;8.90;99.90
22167;DHT22;11249;52.468;13.776;2023-10-19T12:37:52;8.90;99.90
22167;DHT22;11249;52.468;13.776;2023-10-19T12:40:18;9.00;99.90
22167;DHT22;11249;52.468;13.776;2023-10-19T12:42:55;9.00;99.90
22167;DHT22;11249;52.468;13.776;2023-10-19T12:45:22;9.00;99.90
22167;DHT22;11249;52.468;13.776;2023-10-19T12:47:49;9.00;99.90
22167;DHT22;11249;52.468;13.776;2023-10-19T12:50:15;9.00;99.90
22167;DHT22;11249;52.468;13.776;2023-10-19T12:52:42;8.90;99.90
22167;DHT22;11249;52.468;13.776;2023-10-19T12:55:09;8.90;99.90
22167;DHT22;11249;52.468;13.776;2023-10-19T12:57:35;8.90;99.90
22167;DHT22;11249;52.468;13.776;2023-10-19T13:00:02;8.90;99.90
22167;DHT22;11249;52.468;13.776;2023-10-19T13:02:49;8.90;99.90
22167;DHT22;11249;52.468;13.776;2023-10-19T13:05:16;8.80;99.90
22167;DHT22;11249;52.468;13.776;2023-10-19T13:07:44;8.90;99.90
22167;DHT22;11249;52.468;13.776;2023-10-19T13:10:11;8.80;99.90
22167;DHT22;11249;52.468;13.776;2023-10-19T13:12:38;8.90;99.90
22167;DHT22;11249;52.468;13.776;2023-10-19T13:15:04;8.80;99.90
22167;DHT22;11249;52.468;13.776;2023-10-19T13:17:39;8.80;99.90
22167;DHT22;11249;52.468;13.776;2023-10-19T13:20:06;8.80;99.90
22167;DHT22;11249;52.468;13.776;2023-10-19T13:22:42;8.70;99.90
22167;DHT22;11249;52.468;13.776;2023-10-19T13:25:09;8.60;99.90
22167;DHT22;11249;52.468;13.776;2023-10-19T13:27:39;8.60;99.90
22167;DHT22;11249;52.468;13.776;2023-10-19T13:30:08;8.60;99.90
22167;DHT22;11249;52.468;13.776;2023-10-19T13:32:37;8.60;99.90
22167;DHT22;11249;52.468;13.776;2023-10-19T13:35:04;8.60;99.90
22167;DHT22;11249;52.468;13.776;2023-10-19T13:37:31;8.50;99.90
22167;DHT22;11249;52.468;13.776;2023-10-19T13:39:59;8.50;99.90
22167;DHT22;11249;52.468;13.776;2023-10-19T13:42:26;8.50;99.90
22167;DHT22;11249;52.468;13.776;2023-10-19T13:44:53;8.50;99.90
22167;DHT22;11249;52.468;13.776;2023-10-19T13:47:20;8.50;99.90
22167;DHT22;11249;52.468;13.776;2023-10-19T13:49:46;8.50;99.90
22167;DHT22;11249;52.468;13.776;2023-10-19T13:52:13;8.40;99.90
22167;DHT22;11249;52.468;13.776;2023-10-19T13:54:41;8.40;99.90
22167;DHT22;11249;52.468;13.776;2023-10-19T13:57:08;8.40;99.90
22167;DHT22;11249;52.468;13.776;2023-10-19T13:59:36;8.50;99.90
22167;DHT22;11249;52.468;13.776;2023-10-19T14:02:03;8.50;99.90
22167;DHT22;11249;52.468;13.776;2023-10-19T14:04:30;8.50;99.90
22167;DHT22;11249;52.468;13.776;2023-10-19T14:06:57;8.50;99.90
22167;DHT22;11249;52.468;13.776;2023-10-19T14:09:24;8.60;99.90
22167;DHT22;11249;52.468;13.776;2023-10-19T14:11:52;8.50;99.90
22167;DHT22;11249;52.468;13.776;2023-10-19T14:14:20;8.50;99.90
22167;DHT22;11249;52.468;13.776;2023-10-19T14:16:47;8.50;99.90
22167;DHT22;11249;52.468;13.776;2023-10-19T14:19:16;8.50;99.90
22167;DHT22;11249;52.468;13.776;2023-10-19T14:21:45;8.50;99.90
22167;DHT22;11249;52.468;13.776;2023-10-19T14:24:14;8.60;99.90
22167;DHT22;11249;52.468;13.776;2023-10-19T14:26:40;8.50;99.90
22167;DHT22;11249;52.468;13.776;2023-10-19T14:29:09;8.50;99.90
22167;DHT22;11249;52.468;13.776;2023-10-19T14:31:35;8.50;99.90
22167;DHT22;11249;52.468;13.776;2023-10-19T14:34:02;8.60;99.90
22167;DHT22;11249;52.468;13.776;2023-10-19T14:36:30;8.60;99.90
22167;DHT22;11249;52.468;13.776;2023-10-19T14:38:57;8.50;99.90
22167;DHT22;11249;52.468;13.776;2023-10-19T14:41:23;8.50;99.90
22167;DHT22;11249;52.468;13.776;2023-10-19T14:43:50;8.50;99.90
22167;DHT22;11249;52.468;13.776;2023-10-19T14:46:17;8.40;99.90
22167;DHT22;11249;52.468;13.776;2023-10-19T14:48:44;8.40;99.90
22167;DHT22;11249;52.468;13.776;2023-10-19T14:51:11;8.40;99.90
22167;DHT22;11249;52.468;13.776;2023-10-19T14:53:38;8.40;99.90
22167;DHT22;11249;52.468;13.776;2023-10-19T14:56:05;8.30;99.90
22167;DHT22;11249;52.468;13.776;2023-10-19T14:58:32;8.40;99.90
22167;DHT22;11249;52.468;13.776;2023-10-19T15:00:59;8.30;99.90
22167;DHT22;11249;52.468;13.776;2023-10-19T15:03:26;8.20;99.90
22167;DHT22;11249;52.468;13.776;2023-10-19T15:05:54;8.20;99.90
22167;DHT22;11249;52.468;13.776;2023-10-19T15:08:21;8.20;99.90
22167;DHT22;11249;52.468;13.776;2023-10-19T15:10:53;8.20;99.90
22167;DHT22;11249;52.468;13.776;2023-10-19T15:13:21;8.20;99.90
22167;DHT22;11249;52.468;13.776;2023-10-19T15:15:48;8.20;99.90
22167;DHT22;11249;52.468;13.776;2023-10-19T15:18:14;8.20;99.90
22167;DHT22;11249;52.468;13.776;2023-10-19T15:20:41;8.20;99.90
22167;DHT22;11249;52.468;13.776;2023-10-19T15:23:08;8.20;99.90
22167;DHT22;11249;52.468;13.776;2023-10-19T15:25:36;8.20;99.90
22167;DHT22;11249;52.468;13.776;2023-10-19T15:28:03;8.10;99.90
22167;DHT22;11249;52.468;13.776;2023-10-19T15:30:30;8.10;99.90
22167;DHT22;11249;52.468;13.776;2023-10-19T15:32:56;8.10;99.90
22167;DHT22;11249;52.468;13.776;2023-10-19T15:35:23;8.10;99.90
22167;DHT22;11249;52.468;13.776;2023-10-19T15:37:51;8.10;99.90
22167;DHT22;11249;52.468;13.776;2023-10-19T15:40:21;8.10;99.90
22167;DHT22;11249;52.468;13.776;2023-10-19T15:42:48;8.10;99.90
22167;DHT22;11249;52.468;13.776;2023-10-19T15:45:15;8.10;99.90
22167;DHT22;11249;52.468;13.776;2023-10-19T15:47:45;8.10;99.90
22167;DHT22;11249;52.468;13.776;2023-10-19T15:50:12;8.00;99.90
22167;DHT22;11249;52.468;13.776;2023-10-19T15:52:40;8.00;99.90